createdAt,value
2022-12-27T00:00:31.341Z,6.67
2022-12-27T00:02:03.668Z,6.72
2022-12-27T00:03:35.281Z,6.81
2022-12-27T00:05:08.268Z,6.80
2022-12-27T00:06:39.885Z,6.75
2022-12-27T00:08:11.506Z,6.72
2022-12-27T00:09:44.491Z,6.77
2022-12-27T00:11:16.970Z,6.81
2022-12-27T00:12:48.584Z,6.79
2022-12-27T00:14:20.193Z,6.84
2022-12-27T00:15:51.838Z,6.81
2022-12-27T00:17:23.439Z,6.80
2022-12-27T00:18:55.204Z,6.78
2022-12-27T00:20:26.791Z,6.84
2022-12-27T00:21:58.401Z,6.85
2022-12-27T00:23:31.356Z,6.82
2022-12-27T00:25:05.101Z,6.88
2022-12-27T00:26:36.853Z,6.82
2022-12-27T00:28:08.449Z,6.82
2022-12-27T00:29:40.070Z,6.80
2022-12-27T00:31:11.800Z,6.79
2022-12-27T00:32:43.466Z,6.76
2022-12-27T00:34:15.066Z,6.75
2022-12-27T00:35:46.683Z,6.74
2022-12-27T00:37:18.339Z,6.73
2022-12-27T00:38:50.108Z,6.72
2022-12-27T00:40:23.081Z,6.73
2022-12-27T00:41:54.774Z,6.74
2022-12-27T00:43:26.426Z,6.75
2022-12-27T00:44:58.090Z,6.76
2022-12-27T00:46:29.691Z,6.78
2022-12-27T00:48:01.343Z,6.78
2022-12-27T00:49:32.977Z,6.78
2022-12-27T00:51:05.732Z,6.81
2022-12-27T00:52:37.376Z,6.79
2022-12-27T00:54:09.081Z,6.80
2022-12-27T00:55:43.783Z,6.73
2022-12-27T00:57:15.427Z,6.74
2022-12-27T00:58:47.231Z,6.73
2022-12-27T01:00:19.042Z,6.71
2022-12-27T01:01:50.834Z,6.73
2022-12-27T01:03:22.645Z,6.67
2022-12-27T01:04:55.036Z,6.58
2022-12-27T01:06:28.950Z,6.60
2022-12-27T01:08:00.662Z,6.61
2022-12-27T01:09:32.276Z,6.57
2022-12-27T01:11:05.551Z,6.57
2022-12-27T01:12:37.175Z,6.57
2022-12-27T01:14:09.814Z,6.54
2022-12-27T01:15:41.965Z,6.51
2022-12-27T01:17:13.557Z,6.49
2022-12-27T01:18:45.404Z,6.43
2022-12-27T01:20:17.185Z,6.37
2022-12-27T01:21:48.809Z,6.34
2022-12-27T01:23:20.454Z,6.34
2022-12-27T01:24:52.086Z,6.35
2022-12-27T01:26:25.230Z,6.34
2022-12-27T01:27:56.869Z,6.34
2022-12-27T01:29:28.533Z,6.30
2022-12-27T01:31:04.765Z,6.37
2022-12-27T01:32:36.408Z,6.34
2022-12-27T01:34:08.043Z,6.35
2022-12-27T01:35:39.719Z,6.31
2022-12-27T01:37:11.391Z,6.32
2022-12-27T01:38:43.297Z,6.32
2022-12-27T01:40:14.947Z,6.29
2022-12-27T01:42:06.685Z,6.24
2022-12-27T01:43:38.333Z,6.27
2022-12-27T01:45:13.733Z,6.22
2022-12-27T01:46:45.365Z,6.27
2022-12-27T01:48:19.188Z,6.22
2022-12-27T01:49:56.498Z,6.24
2022-12-27T01:51:28.130Z,6.22
2022-12-27T01:53:04.104Z,6.22
2022-12-27T01:54:35.710Z,6.20
2022-12-27T01:56:09.435Z,6.14
2022-12-27T01:57:42.420Z,6.16
2022-12-27T01:59:14.029Z,6.14
2022-12-27T02:00:46.549Z,6.13
2022-12-27T02:02:18.379Z,6.09
2022-12-27T02:03:52.078Z,6.05
2022-12-27T02:05:24.562Z,6.05
2022-12-27T02:06:56.194Z,5.98
2022-12-27T02:08:35.395Z,5.96
2022-12-27T02:10:07.484Z,5.92
2022-12-27T02:11:59.566Z,5.89
2022-12-27T02:13:33.970Z,5.90
2022-12-27T02:15:08.369Z,5.86
2022-12-27T02:16:40.079Z,5.85
2022-12-27T02:18:11.709Z,5.81
2022-12-27T02:19:50.167Z,5.77
2022-12-27T02:21:40.662Z,5.85
2022-12-27T02:23:52.481Z,5.85
2022-12-27T02:25:32.682Z,5.80
2022-12-27T02:27:04.740Z,5.77
2022-12-27T02:28:55.279Z,5.76
2022-12-27T02:30:26.984Z,5.75
2022-12-27T02:32:01.224Z,5.66
2022-12-27T02:33:34.379Z,5.67
2022-12-27T02:35:09.480Z,5.70
2022-12-27T02:36:41.365Z,5.60
2022-12-27T02:38:15.228Z,5.57
2022-12-27T02:39:47.533Z,5.58
2022-12-27T02:41:38.023Z,5.59
2022-12-27T02:43:28.010Z,5.66
2022-12-27T02:45:20.253Z,5.58
2022-12-27T02:47:10.535Z,5.52
2022-12-27T02:49:10.458Z,5.44
2022-12-27T02:51:07.739Z,5.40
2022-12-27T02:53:00.877Z,5.42
2022-12-27T02:54:41.965Z,5.52
2022-12-27T02:56:37.680Z,5.49
2022-12-27T02:58:22.763Z,5.45
2022-12-27T03:00:22.633Z,5.47
2022-12-27T03:02:17.459Z,5.42
2022-12-27T03:03:56.567Z,5.44
2022-12-27T03:05:31.402Z,5.39
2022-12-27T03:07:16.181Z,5.41
2022-12-27T03:08:51.497Z,5.29
2022-12-27T03:10:55.928Z,5.26
2022-12-27T03:12:53.203Z,5.35
2022-12-27T03:14:45.051Z,5.30
2022-12-27T03:16:22.522Z,5.33
2022-12-27T03:17:56.791Z,5.31
2022-12-27T03:19:47.378Z,5.21
2022-12-27T03:21:39.488Z,5.32
2022-12-27T03:23:29.913Z,5.27
2022-12-27T03:25:19.926Z,5.16
2022-12-27T03:26:51.517Z,5.19
2022-12-27T03:28:43.228Z,5.11
2022-12-27T03:30:33.556Z,5.09
2022-12-27T03:32:27.208Z,5.15
2022-12-27T03:34:21.867Z,5.16
2022-12-27T03:36:13.169Z,5.19
2022-12-27T03:38:05.114Z,5.27
2022-12-27T03:39:36.857Z,5.27
2022-12-27T03:41:27.237Z,5.13
2022-12-27T03:43:10.920Z,5.11
2022-12-27T03:44:42.560Z,5.15
2022-12-27T03:46:36.529Z,5.25
2022-12-27T03:48:10.562Z,5.23
2022-12-27T03:49:44.127Z,5.20
2022-12-27T03:51:15.765Z,5.12
2022-12-27T03:52:48.788Z,5.12
2022-12-27T03:54:26.468Z,5.17
2022-12-27T03:55:58.239Z,5.09
2022-12-27T03:57:30.570Z,5.10
2022-12-27T03:59:02.221Z,5.06
2022-12-27T04:00:33.873Z,5.03
2022-12-27T04:02:08.187Z,5.05
2022-12-27T04:03:41.360Z,4.92
2022-12-27T04:05:13.041Z,4.89
2022-12-27T04:06:44.635Z,4.82
2022-12-27T04:08:34.776Z,4.85
2022-12-27T04:10:25.314Z,4.86
2022-12-27T04:12:15.568Z,4.78
2022-12-27T04:14:10.496Z,4.79
2022-12-27T04:16:00.926Z,4.78
2022-12-27T04:17:51.361Z,4.87
2022-12-27T04:19:43.109Z,4.79
2022-12-27T04:21:33.533Z,4.86
2022-12-27T04:23:23.827Z,4.81
2022-12-27T04:25:14.114Z,4.77
2022-12-27T04:27:04.373Z,4.58
2022-12-27T04:28:54.703Z,4.66
2022-12-27T04:30:45.105Z,4.71
2022-12-27T04:32:35.393Z,4.63
2022-12-27T04:34:25.753Z,4.65
2022-12-27T04:36:04.324Z,4.46
2022-12-27T04:37:37.702Z,4.57
2022-12-27T04:39:09.284Z,4.66
2022-12-27T04:40:59.746Z,4.73
2022-12-27T04:42:49.926Z,4.64
2022-12-27T04:44:40.394Z,4.33
2022-12-27T04:46:31.864Z,3.97
2022-12-27T04:48:22.235Z,4.07
2022-12-27T04:50:12.591Z,3.71
2022-12-27T04:52:04.204Z,3.72
2022-12-27T04:53:54.507Z,3.92
2022-12-27T04:55:28.192Z,4.29
2022-12-27T04:56:59.826Z,4.45
2022-12-27T04:58:31.484Z,4.50
2022-12-27T05:00:22.159Z,4.48
2022-12-27T05:02:05.871Z,4.56
2022-12-27T05:03:37.830Z,4.54
2022-12-27T05:05:09.696Z,4.52
2022-12-27T05:06:41.344Z,4.51
2022-12-27T05:08:33.068Z,4.38
2022-12-27T05:10:24.726Z,4.05
2022-12-27T05:12:15.280Z,4.32
2022-12-27T05:13:59.704Z,4.30
2022-12-27T05:15:31.321Z,4.46
2022-12-27T05:17:02.942Z,4.35
2022-12-27T05:18:34.636Z,4.46
2022-12-27T05:20:07.565Z,4.52
2022-12-27T05:21:39.533Z,4.40
2022-12-27T05:23:29.929Z,4.48
2022-12-27T05:25:21.396Z,4.32
2022-12-27T05:26:55.648Z,4.45
2022-12-27T05:28:27.255Z,4.27
2022-12-27T05:29:58.950Z,4.31
2022-12-27T05:31:30.657Z,4.01
2022-12-27T05:33:02.342Z,4.13
2022-12-27T05:34:33.956Z,4.25
2022-12-27T05:36:06.678Z,4.41
2022-12-27T05:37:38.288Z,4.41
2022-12-27T05:39:09.929Z,4.46
2022-12-27T05:40:42.889Z,4.50
2022-12-27T05:42:14.546Z,4.49
2022-12-27T05:43:46.213Z,4.53
2022-12-27T05:45:18.097Z,4.48
2022-12-27T05:46:49.763Z,4.42
2022-12-27T05:48:21.585Z,4.38
2022-12-27T05:49:53.294Z,4.21
2022-12-27T05:51:24.942Z,4.22
2022-12-27T05:52:56.960Z,4.37
2022-12-27T05:54:28.582Z,4.44
2022-12-27T05:56:01.601Z,4.34
2022-12-27T05:57:33.361Z,4.33
2022-12-27T05:59:05.494Z,4.25
2022-12-27T06:00:37.151Z,4.37
2022-12-27T06:02:08.916Z,4.29
2022-12-27T06:03:40.711Z,4.27
2022-12-27T06:05:12.497Z,4.31
2022-12-27T06:06:44.197Z,4.41
2022-12-27T06:08:15.837Z,4.44
2022-12-27T06:09:47.516Z,4.39
2022-12-27T06:11:20.596Z,4.27
2022-12-27T06:12:52.214Z,4.23
2022-12-27T06:14:23.826Z,4.28
2022-12-27T06:15:55.463Z,4.38
2022-12-27T06:17:27.216Z,4.40
2022-12-27T06:18:58.861Z,4.29
2022-12-27T06:20:30.613Z,4.37
2022-12-27T06:22:02.243Z,4.32
2022-12-27T06:23:34.161Z,4.29
2022-12-27T06:25:10.822Z,4.18
2022-12-27T06:27:28.257Z,4.26
2022-12-27T06:29:29.748Z,4.25
2022-12-27T06:31:17.928Z,4.26
2022-12-27T06:32:49.630Z,4.26
2022-12-27T06:34:21.337Z,4.16
2022-12-27T06:35:52.977Z,4.29
2022-12-27T06:37:24.637Z,3.98
2022-12-27T06:38:56.252Z,4.22
2022-12-27T06:40:27.940Z,4.29
2022-12-27T06:42:01.028Z,4.17
2022-12-27T06:43:32.734Z,4.16
2022-12-27T06:45:06.493Z,4.24
2022-12-27T06:46:38.233Z,4.22
2022-12-27T06:48:09.851Z,4.29
2022-12-27T06:49:41.507Z,4.24
2022-12-27T06:51:13.592Z,4.22
2022-12-27T06:52:45.211Z,3.94
2022-12-27T06:54:16.884Z,4.07
2022-12-27T06:55:48.608Z,4.11
2022-12-27T06:57:21.662Z,4.11
2022-12-27T06:58:53.939Z,4.16
2022-12-27T07:00:25.514Z,4.26
2022-12-27T07:01:57.320Z,4.27
2022-12-27T07:03:29.135Z,4.21
2022-12-27T07:05:00.861Z,4.26
2022-12-27T07:06:32.804Z,4.24
2022-12-27T07:08:04.491Z,4.26
2022-12-27T07:09:36.185Z,4.28
2022-12-27T07:11:09.068Z,4.34
2022-12-27T07:12:42.161Z,4.35
2022-12-27T07:14:14.283Z,4.31
2022-12-27T07:15:45.932Z,4.24
2022-12-27T07:17:17.554Z,4.24
2022-12-27T07:18:50.045Z,4.26
2022-12-27T07:20:22.049Z,4.29
2022-12-27T07:21:53.751Z,4.35
2022-12-27T07:23:25.507Z,4.35
2022-12-27T07:24:57.260Z,4.34
2022-12-27T07:26:30.246Z,4.35
2022-12-27T07:28:03.524Z,4.22
2022-12-27T07:29:37.942Z,4.28
2022-12-27T07:31:12.884Z,4.36
2022-12-27T07:32:44.801Z,4.40
2022-12-27T07:34:16.397Z,4.44
2022-12-27T07:35:48.032Z,4.44
2022-12-27T07:37:20.617Z,4.41
2022-12-27T07:38:52.264Z,4.45
2022-12-27T07:40:23.919Z,4.43
2022-12-27T07:41:55.696Z,4.38
2022-12-27T07:43:30.659Z,4.44
2022-12-27T07:45:02.502Z,4.43
2022-12-27T07:46:34.291Z,4.43
2022-12-27T07:48:06.503Z,4.45
2022-12-27T07:49:38.269Z,4.48
2022-12-27T07:51:10.178Z,4.51
2022-12-27T07:52:41.999Z,4.55
2022-12-27T07:54:13.696Z,4.50
2022-12-27T07:55:47.142Z,4.53
2022-12-27T07:57:18.761Z,4.58
2022-12-27T07:58:51.959Z,4.58
2022-12-27T08:00:23.769Z,4.58
2022-12-27T08:02:04.803Z,4.47
2022-12-27T08:03:36.855Z,4.54
2022-12-27T08:05:09.133Z,4.59
2022-12-27T08:06:40.882Z,4.55
2022-12-27T08:08:13.910Z,4.61
2022-12-27T08:09:46.332Z,4.63
2022-12-27T08:11:18.031Z,4.61
2022-12-27T08:12:49.884Z,4.64
2022-12-27T08:14:22.948Z,4.72
2022-12-27T08:15:54.584Z,4.75
2022-12-27T08:17:29.453Z,4.74
2022-12-27T08:19:08.045Z,4.74
2022-12-27T08:20:40.103Z,4.78
2022-12-27T08:22:11.879Z,4.79
2022-12-27T08:23:43.618Z,4.80
2022-12-27T08:25:18.279Z,4.88
2022-12-27T08:26:49.902Z,4.92
2022-12-27T08:28:21.768Z,4.92
2022-12-27T08:29:54.872Z,4.98
2022-12-27T08:31:26.510Z,5.04
2022-12-27T08:32:58.159Z,5.11
2022-12-27T08:34:29.806Z,5.11
2022-12-27T08:36:15.703Z,5.11
2022-12-27T08:37:55.748Z,5.11
2022-12-27T08:39:27.643Z,5.14
2022-12-27T08:40:59.429Z,5.14
2022-12-27T08:42:31.104Z,5.15
2022-12-27T08:44:02.863Z,5.20
2022-12-27T08:45:36.192Z,5.21
2022-12-27T08:47:07.945Z,5.15
2022-12-27T08:48:39.623Z,5.17
2022-12-27T08:50:11.286Z,5.20
2022-12-27T08:51:42.914Z,5.25
2022-12-27T08:53:14.572Z,5.25
2022-12-27T08:54:46.226Z,5.23
2022-12-27T08:56:18.005Z,5.26
2022-12-27T08:57:49.643Z,5.27
2022-12-27T08:59:21.424Z,5.32
2022-12-27T09:00:54.755Z,5.33
2022-12-27T09:02:26.607Z,5.36
2022-12-27T09:03:58.397Z,5.32
2022-12-27T09:05:30.015Z,5.27
2022-12-27T09:07:01.631Z,5.30
2022-12-27T09:08:33.450Z,5.32
2022-12-27T09:10:06.351Z,5.34
2022-12-27T09:11:38.361Z,5.29
2022-12-27T09:13:10.201Z,5.24
2022-12-27T09:14:42.055Z,5.28
2022-12-27T09:16:19.135Z,5.33
2022-12-27T09:17:50.869Z,5.38
2022-12-27T09:19:22.498Z,5.39
2022-12-27T09:20:54.156Z,5.38
2022-12-27T09:22:26.021Z,5.38
2022-12-27T09:23:57.730Z,5.38
2022-12-27T09:25:29.450Z,5.45
2022-12-27T09:27:01.227Z,5.40
2022-12-27T09:28:32.952Z,5.42
2022-12-27T09:30:05.388Z,5.40
2022-12-27T09:31:38.391Z,5.46
2022-12-27T09:33:09.983Z,5.42
2022-12-27T09:34:41.660Z,5.46
2022-12-27T09:36:14.067Z,5.43
2022-12-27T09:37:45.673Z,5.36
2022-12-27T09:39:17.339Z,5.36
2022-12-27T09:40:52.593Z,5.41
2022-12-27T09:44:23.086Z,5.51
2022-12-27T09:45:55.419Z,5.49
2022-12-27T09:47:29.437Z,5.53
2022-12-27T09:49:01.036Z,5.58
2022-12-27T09:50:33.795Z,5.58
2022-12-27T09:52:07.380Z,5.59
2022-12-27T09:53:42.034Z,5.61
2022-12-27T09:55:16.193Z,5.55
2022-12-27T09:57:18.193Z,5.53
2022-12-27T09:58:43.232Z,5.51
2022-12-27T10:00:16.201Z,5.46
2022-12-27T10:01:49.178Z,5.41
2022-12-27T10:03:24.879Z,5.37
2022-12-27T10:06:59.313Z,5.47
2022-12-27T10:08:37.549Z,5.52
2022-12-27T10:10:11.912Z,5.55
2022-12-27T10:11:47.094Z,5.54
2022-12-27T10:13:26.484Z,5.62
2022-12-27T10:15:04.233Z,5.71
2022-12-27T10:16:37.657Z,5.73
2022-12-27T10:18:14.899Z,5.65
2022-12-27T10:19:50.348Z,5.63
2022-12-27T10:21:22.808Z,5.70
2022-12-27T10:22:55.373Z,5.68
2022-12-27T10:24:32.431Z,5.66
2022-12-27T10:26:05.166Z,5.66
2022-12-27T10:27:37.113Z,5.75
2022-12-27T10:29:13.655Z,5.73
2022-12-27T10:30:45.873Z,5.76
2022-12-27T10:32:17.600Z,5.74
2022-12-27T10:33:49.809Z,5.82
2022-12-27T10:35:24.157Z,5.81
2022-12-27T10:36:56.102Z,5.85
2022-12-27T10:38:29.743Z,5.84
2022-12-27T10:40:08.868Z,5.84
2022-12-27T10:41:50.164Z,5.81
2022-12-27T10:43:25.907Z,5.84
2022-12-27T10:45:24.923Z,5.82
2022-12-27T10:46:56.913Z,5.73
2022-12-27T10:48:41.514Z,5.77
2022-12-27T10:50:22.437Z,5.79
2022-12-27T10:51:55.372Z,5.86
2022-12-27T10:53:34.769Z,5.77
2022-12-27T10:55:12.306Z,5.80
2022-12-27T10:56:47.823Z,5.84
2022-12-27T10:58:21.053Z,5.84
2022-12-27T11:00:09.410Z,5.87
2022-12-27T11:01:41.341Z,5.96
2022-12-27T11:03:16.481Z,5.96
2022-12-27T11:04:58.637Z,6.05
2022-12-27T11:06:31.733Z,6.10
2022-12-27T11:08:18.639Z,5.93
2022-12-27T11:09:51.452Z,5.91
2022-12-27T11:11:24.034Z,5.97
2022-12-27T11:13:02.757Z,5.95
2022-12-27T11:14:37.191Z,5.97
2022-12-27T11:16:13.578Z,6.01
2022-12-27T11:17:45.945Z,6.01
2022-12-27T11:19:21.901Z,6.01
2022-12-27T11:20:54.927Z,5.93
2022-12-27T11:22:28.157Z,5.99
2022-12-27T11:24:00.914Z,6.03
2022-12-27T11:25:32.759Z,6.07
2022-12-27T11:27:04.386Z,6.07
2022-12-27T11:28:38.324Z,6.12
2022-12-27T11:30:21.033Z,6.14
2022-12-27T11:31:52.789Z,6.17
2022-12-27T11:33:26.242Z,6.16
2022-12-27T11:34:57.878Z,6.19
2022-12-27T11:36:33.911Z,6.19
2022-12-27T11:38:10.758Z,6.24
2022-12-27T11:39:50.276Z,6.22
2022-12-27T11:41:28.093Z,6.31
2022-12-27T11:43:02.805Z,6.28
2022-12-27T11:44:36.424Z,6.23
2022-12-27T11:46:13.251Z,6.14
2022-12-27T11:47:47.512Z,6.12
2022-12-27T11:49:21.559Z,6.22
2022-12-27T11:51:03.565Z,6.22
2022-12-27T11:52:43.707Z,6.24
2022-12-27T11:54:34.156Z,6.25
2022-12-27T11:56:15.050Z,6.27
2022-12-27T11:58:03.326Z,6.30
2022-12-27T11:59:43.718Z,6.23
2022-12-27T12:01:27.845Z,6.19
2022-12-27T12:03:22.690Z,6.22
2022-12-27T12:05:21.865Z,6.24
2022-12-27T12:06:56.057Z,6.23
2022-12-27T12:08:39.460Z,6.20
2022-12-27T12:10:18.145Z,6.20
2022-12-27T12:12:04.684Z,6.23
2022-12-27T12:14:00.465Z,6.29
2022-12-27T12:15:41.955Z,6.27
2022-12-27T12:17:21.429Z,6.24
2022-12-27T12:19:01.001Z,6.33
2022-12-27T12:20:43.262Z,6.40
2022-12-27T12:22:31.641Z,6.41
2022-12-27T12:24:35.714Z,6.41
2022-12-27T12:26:17.129Z,6.48
2022-12-27T12:27:57.861Z,6.52
2022-12-27T12:29:36.538Z,6.46
2022-12-27T12:31:14.838Z,6.44
2022-12-27T12:33:12.157Z,6.39
2022-12-27T12:34:53.041Z,6.39
2022-12-27T12:36:41.612Z,6.43
2022-12-27T12:38:20.101Z,6.43
2022-12-27T12:40:05.114Z,6.44
2022-12-27T12:42:00.770Z,6.43
2022-12-27T12:44:07.128Z,6.43
2022-12-27T12:45:45.328Z,6.45
2022-12-27T12:47:30.850Z,6.41
2022-12-27T12:49:10.172Z,6.40
2022-12-27T12:50:52.591Z,6.39
2022-12-27T12:52:35.318Z,6.38
2022-12-27T12:54:13.137Z,6.36
2022-12-27T12:55:51.786Z,6.37
2022-12-27T12:57:35.022Z,6.38
2022-12-27T12:59:11.225Z,6.35
2022-12-27T13:00:49.169Z,6.38
2022-12-27T13:02:49.650Z,6.46
2022-12-27T13:04:35.098Z,6.44
2022-12-27T13:06:15.244Z,6.40
2022-12-27T13:07:53.532Z,6.43
2022-12-27T13:09:33.104Z,6.40
2022-12-27T13:11:28.867Z,6.46
2022-12-27T13:13:07.080Z,6.42
2022-12-27T13:14:48.514Z,6.43
2022-12-27T13:16:25.597Z,6.34
2022-12-27T13:18:03.733Z,6.33
2022-12-27T13:19:41.588Z,6.42
2022-12-27T13:21:19.547Z,6.42
2022-12-27T13:22:58.008Z,6.46
2022-12-27T13:24:34.150Z,6.39
2022-12-27T13:26:11.887Z,6.39
2022-12-27T13:27:47.710Z,6.40
2022-12-27T13:29:39.044Z,6.43
2022-12-27T13:31:16.640Z,6.47
2022-12-27T13:33:00.251Z,6.47
2022-12-27T13:34:38.672Z,6.43
2022-12-27T13:36:16.853Z,6.40
2022-12-27T13:37:53.143Z,6.41
2022-12-27T13:39:32.511Z,6.38
2022-12-27T13:41:30.753Z,6.43
2022-12-27T13:43:13.029Z,6.46
2022-12-27T13:44:51.148Z,6.41
2022-12-27T13:46:42.613Z,6.40
2022-12-27T13:48:20.467Z,6.42
2022-12-27T13:50:12.511Z,6.31
2022-12-27T13:51:44.740Z,6.41
2022-12-27T13:53:27.580Z,6.33
2022-12-27T13:55:16.552Z,6.36
2022-12-27T13:56:54.934Z,6.38
2022-12-27T13:58:59.404Z,6.37
2022-12-27T14:00:34.779Z,6.33
2022-12-27T14:02:36.703Z,6.28
2022-12-27T14:04:23.617Z,6.29
2022-12-27T14:06:12.026Z,6.26
2022-12-27T14:07:52.488Z,6.24
2022-12-27T14:09:40.319Z,6.24
2022-12-27T14:11:15.500Z,6.15
2022-12-27T14:13:00.574Z,6.08
2022-12-27T14:14:32.167Z,6.08
2022-12-27T14:16:21.355Z,6.15
2022-12-27T14:18:03.569Z,6.19
2022-12-27T14:19:59.653Z,6.19
2022-12-27T14:21:43.217Z,6.15
2022-12-27T14:23:25.219Z,6.12
2022-12-27T14:25:26.310Z,6.17
2022-12-27T14:27:28.777Z,6.06
2022-12-27T14:29:28.599Z,6.07
2022-12-27T14:31:24.232Z,6.09
2022-12-27T14:33:27.441Z,6.08
2022-12-27T14:35:30.234Z,6.12
2022-12-27T14:37:35.644Z,6.05
2022-12-27T14:39:32.395Z,6.11
2022-12-27T14:41:29.739Z,6.10
2022-12-27T14:43:23.575Z,6.12
2022-12-27T14:45:31.611Z,6.10
2022-12-27T14:47:20.847Z,6.15
2022-12-27T14:49:27.454Z,6.16
2022-12-27T14:51:59.442Z,6.20
2022-12-27T14:53:43.346Z,6.22
2022-12-27T14:55:34.587Z,6.18
2022-12-27T14:57:13.251Z,6.13
2022-12-27T14:59:11.950Z,6.06
2022-12-27T15:00:57.855Z,6.11
2022-12-27T15:03:02.335Z,6.09
2022-12-27T15:05:04.166Z,6.10
2022-12-27T15:06:57.730Z,6.10
2022-12-27T15:08:42.931Z,6.08
2022-12-27T15:10:35.396Z,6.04
2022-12-27T15:12:22.040Z,6.02
2022-12-27T15:14:23.614Z,6.03
2022-12-27T15:16:19.233Z,5.98
2022-12-27T15:18:20.390Z,5.93
2022-12-27T15:20:10.004Z,5.91
2022-12-27T15:21:52.714Z,5.90
2022-12-27T15:23:28.096Z,5.82
2022-12-27T15:25:02.635Z,5.79
2022-12-27T15:26:51.607Z,5.73
2022-12-27T15:28:29.038Z,5.72
2022-12-27T15:30:07.917Z,5.67
2022-12-27T15:31:46.057Z,5.69
2022-12-27T15:33:23.390Z,5.62
2022-12-27T15:35:10.441Z,5.57
2022-12-27T15:36:42.931Z,5.65
2022-12-27T15:38:15.038Z,5.59
2022-12-27T15:39:50.042Z,5.52
2022-12-27T15:41:34.656Z,5.54
2022-12-27T15:43:09.928Z,5.44
2022-12-27T15:44:46.619Z,5.43
2022-12-27T15:46:35.678Z,5.46
2022-12-27T15:48:31.459Z,5.35
2022-12-27T15:50:25.997Z,5.43
2022-12-27T15:51:59.799Z,5.38
2022-12-27T15:53:41.945Z,5.28
2022-12-27T15:55:17.655Z,5.29
2022-12-27T15:56:58.163Z,5.38
2022-12-27T15:58:30.212Z,5.35
2022-12-27T16:00:16.400Z,5.30
2022-12-27T16:01:48.668Z,5.35
2022-12-27T16:03:34.974Z,5.32
2022-12-27T16:05:33.941Z,5.37
2022-12-27T16:07:05.577Z,5.35
2022-12-27T16:08:39.630Z,5.22
2022-12-27T16:10:35.814Z,5.24
2022-12-27T16:12:09.731Z,5.23
2022-12-27T16:13:48.326Z,5.22
2022-12-27T16:15:43.140Z,5.09
2022-12-27T16:17:28.712Z,5.07
2022-12-27T16:19:16.360Z,4.96
2022-12-27T16:20:54.048Z,5.02
2022-12-27T16:22:29.710Z,5.02
2022-12-27T16:24:03.501Z,5.05
2022-12-27T16:25:35.668Z,5.01
2022-12-27T16:27:07.332Z,4.99
2022-12-27T16:28:39.331Z,5.03
2022-12-27T16:30:12.414Z,5.04
2022-12-27T16:31:45.946Z,5.04
2022-12-27T16:33:34.006Z,4.98
2022-12-27T16:35:14.295Z,4.94
2022-12-27T16:36:46.471Z,4.94
2022-12-27T16:38:20.591Z,4.90
2022-12-27T16:40:11.864Z,4.82
2022-12-27T16:42:05.219Z,4.69
2022-12-27T16:43:44.844Z,4.75
2022-12-27T16:45:28.697Z,4.86
2022-12-27T16:47:04.361Z,4.84
2022-12-27T16:48:43.141Z,4.81
2022-12-27T16:50:27.930Z,4.75
2022-12-27T16:52:17.224Z,4.76
2022-12-27T16:54:02.025Z,4.61
2022-12-27T16:56:07.974Z,4.61
2022-12-27T16:57:41.536Z,4.65
2022-12-27T16:59:52.759Z,4.58
2022-12-27T17:01:57.423Z,4.50
2022-12-27T17:03:45.303Z,4.56
2022-12-27T17:06:21.693Z,4.50
2022-12-27T17:07:43.191Z,4.44
2022-12-27T17:09:37.845Z,4.33
2022-12-27T17:11:26.169Z,4.38
2022-12-27T17:13:19.298Z,4.38
2022-12-27T17:14:57.686Z,4.34
2022-12-27T17:16:31.391Z,4.32
2022-12-27T17:18:06.565Z,4.26
2022-12-27T17:19:39.783Z,4.23
2022-12-27T17:21:15.881Z,4.16
2022-12-27T17:22:47.525Z,4.15
2022-12-27T17:24:19.935Z,4.09
2022-12-27T17:25:52.784Z,4.11
2022-12-27T17:27:35.051Z,4.14
2022-12-27T17:29:14.128Z,4.23
2022-12-27T17:30:47.938Z,4.24
2022-12-27T17:32:28.881Z,4.17
2022-12-27T17:34:05.688Z,4.22
2022-12-27T17:35:44.103Z,4.19
2022-12-27T17:37:19.917Z,4.05
2022-12-27T17:38:59.087Z,4.00
2022-12-27T17:40:33.353Z,4.09
2022-12-27T17:42:29.212Z,4.09
2022-12-27T17:44:21.859Z,3.96
2022-12-27T17:45:55.068Z,3.85
2022-12-27T17:47:37.112Z,3.77
2022-12-27T17:49:09.262Z,3.78
2022-12-27T17:50:42.794Z,3.86
2022-12-27T17:52:35.642Z,3.78
2022-12-27T17:54:39.967Z,3.79
2022-12-27T17:56:35.477Z,3.79
2022-12-27T17:58:08.540Z,3.64
2022-12-27T17:59:42.431Z,3.58
2022-12-27T18:01:14.269Z,3.66
2022-12-27T18:02:46.051Z,3.62
2022-12-27T18:04:23.236Z,3.41
2022-12-27T18:05:54.844Z,3.41
2022-12-27T18:07:28.727Z,3.47
2022-12-27T18:09:02.233Z,3.57
2022-12-27T18:10:34.496Z,3.62
2022-12-27T18:12:10.841Z,3.64
2022-12-27T18:13:47.592Z,3.60
2022-12-27T18:15:22.492Z,3.52
2022-12-27T18:16:54.179Z,3.36
2022-12-27T18:18:27.453Z,3.38
2022-12-27T18:19:59.730Z,3.36
2022-12-27T18:21:31.529Z,3.17
2022-12-27T18:23:17.753Z,3.33
2022-12-27T18:24:49.469Z,3.33
2022-12-27T18:26:22.305Z,3.17
2022-12-27T18:27:58.454Z,3.26
2022-12-27T18:29:30.071Z,3.35
2022-12-27T18:31:04.405Z,3.25
2022-12-27T18:32:36.078Z,3.28
2022-12-27T18:34:14.626Z,3.33
2022-12-27T18:35:47.197Z,3.30
2022-12-27T18:37:22.657Z,3.18
2022-12-27T18:38:58.030Z,3.17
2022-12-27T18:40:29.691Z,3.20
2022-12-27T18:42:02.695Z,3.16
2022-12-27T18:43:34.663Z,3.06
2022-12-27T18:45:07.347Z,2.94
2022-12-27T18:46:38.991Z,3.03
2022-12-27T18:48:12.155Z,3.03
2022-12-27T18:49:43.807Z,2.96
2022-12-27T18:51:15.439Z,2.96
2022-12-27T18:52:51.276Z,3.01
2022-12-27T18:54:35.162Z,2.95
2022-12-27T18:56:07.813Z,2.97
2022-12-27T18:57:39.533Z,2.96
2022-12-27T18:59:20.442Z,2.83
2022-12-27T19:01:00.349Z,2.54
2022-12-27T19:02:33.834Z,2.51
2022-12-27T19:04:18.415Z,2.42
2022-12-27T19:05:58.416Z,2.45
2022-12-27T19:07:30.041Z,2.22
2022-12-27T19:09:01.774Z,2.47
2022-12-27T19:10:34.978Z,2.59
2022-12-27T19:12:09.024Z,2.47
2022-12-27T19:13:42.427Z,2.25
2022-12-27T19:15:15.184Z,2.07
2022-12-27T19:16:48.777Z,2.18
2022-12-27T19:18:22.547Z,2.44
2022-12-27T19:19:55.120Z,2.61
2022-12-27T19:21:30.803Z,2.59
2022-12-27T19:23:03.172Z,2.70
2022-12-27T19:24:34.906Z,2.74
2022-12-27T19:26:22.967Z,2.60
2022-12-27T19:28:02.385Z,2.63
2022-12-27T19:29:39.336Z,2.66
2022-12-27T19:31:18.462Z,2.59
2022-12-27T19:32:50.212Z,2.47
2022-12-27T19:34:21.860Z,2.58
2022-12-27T19:35:53.591Z,2.54
2022-12-27T19:37:25.470Z,2.56
2022-12-27T19:38:57.334Z,2.32
2022-12-27T19:40:29.041Z,2.37
2022-12-27T19:42:04.707Z,2.33
2022-12-27T19:43:37.960Z,2.43
2022-12-27T19:45:10.684Z,2.19
2022-12-27T19:46:42.538Z,2.40
2022-12-27T19:48:14.206Z,2.50
2022-12-27T19:49:45.822Z,2.47
2022-12-27T19:51:18.581Z,2.35
2022-12-27T19:52:50.751Z,2.28
2022-12-27T19:54:22.863Z,2.40
2022-12-27T19:55:54.511Z,2.34
2022-12-27T19:57:27.528Z,2.41
2022-12-27T19:59:02.459Z,2.44
2022-12-27T20:00:38.505Z,2.32
2022-12-27T20:02:10.509Z,2.25
2022-12-27T20:03:45.500Z,2.14
2022-12-27T20:05:17.239Z,2.16
2022-12-27T20:07:09.509Z,2.28
2022-12-27T20:08:44.940Z,2.24
2022-12-27T20:10:16.898Z,2.16
2022-12-27T20:11:51.642Z,2.21
2022-12-27T20:13:27.773Z,2.19
2022-12-27T20:14:59.407Z,2.14
2022-12-27T20:16:31.297Z,2.19
2022-12-27T20:18:03.043Z,2.21
2022-12-27T20:19:36.896Z,2.17
2022-12-27T20:21:11.489Z,2.02
2022-12-27T20:22:43.101Z,1.97
2022-12-27T20:24:14.768Z,1.81
2022-12-27T20:25:47.414Z,1.76
2022-12-27T20:27:23.830Z,1.72
2022-12-27T20:28:56.990Z,1.92
2022-12-27T20:30:30.605Z,1.92
2022-12-27T20:32:02.376Z,2.04
2022-12-27T20:33:34.038Z,1.93
2022-12-27T20:35:06.700Z,1.90
2022-12-27T20:36:38.361Z,1.80
2022-12-27T20:38:10.743Z,1.90
2022-12-27T20:39:42.467Z,1.92
2022-12-27T20:41:20.587Z,1.84
2022-12-27T20:42:52.205Z,1.95
2022-12-27T20:44:25.217Z,1.97
2022-12-27T20:45:56.864Z,1.92
2022-12-27T20:47:28.710Z,1.72
2022-12-27T20:49:00.301Z,1.82
2022-12-27T20:50:31.898Z,1.91
2022-12-27T20:52:03.863Z,1.95
2022-12-27T20:53:35.572Z,1.93
2022-12-27T20:55:07.763Z,1.94
2022-12-27T20:56:39.428Z,1.85
2022-12-27T20:58:11.117Z,1.77
2022-12-27T20:59:44.641Z,1.76
2022-12-27T21:01:17.807Z,1.81
2022-12-27T21:02:49.753Z,1.78
2022-12-27T21:04:21.708Z,1.81
2022-12-27T21:05:53.396Z,1.82
2022-12-27T21:07:25.151Z,1.88
2022-12-27T21:08:58.345Z,1.93
2022-12-27T21:10:30.271Z,1.88
2022-12-27T21:12:01.928Z,1.94
2022-12-27T21:13:36.039Z,1.95
2022-12-27T21:15:10.838Z,1.95
2022-12-27T21:16:42.623Z,1.94
2022-12-27T21:18:14.299Z,1.83
2022-12-27T21:19:46.147Z,1.83
2022-12-27T21:21:19.828Z,1.82
2022-12-27T21:22:51.791Z,1.84
2022-12-27T21:24:23.698Z,1.85
2022-12-27T21:25:55.309Z,1.78
2022-12-27T21:27:27.073Z,1.64
2022-12-27T21:28:59.812Z,1.51
2022-12-27T21:30:35.949Z,1.49
2022-12-27T21:32:07.929Z,1.45
2022-12-27T21:33:42.437Z,1.52
2022-12-27T21:35:14.270Z,1.53
2022-12-27T21:36:50.355Z,1.56
2022-12-27T21:38:24.014Z,1.65
2022-12-27T21:39:55.777Z,1.63
2022-12-27T21:41:28.536Z,1.51
2022-12-27T21:43:00.317Z,1.49
2022-12-27T21:44:31.926Z,1.53
2022-12-27T21:46:09.597Z,1.52
2022-12-27T21:47:44.410Z,1.61